Jewel Of The Seas — C6FW9 — position and weather

sailwx.info

Track history (hours):
 
Tides and Currents Weather Stations Pressure Air Temp Water Temp Dewpoint Dewpoint Depression Visibility Wind Speed Wind Dir Waves Ship Positions

Jewel Of The Seas

Operator: Royal Caribbean Cruises Ltd

Last reported at 2018-Jan-18 10:56 UTC. Time now 2018-Jan-18 17:37 UTC.
Position N 14°04' W 061°04'.

Length 290 m; draft 8.6 m.

Type: Passenger vessel. MMSI: 311583000.

Date/timePositionNaut miles runAvg speedWind from/ knotsBaromVisibWave heightAir tempDewpointWater temp
2018-Jan-18 10:56N 14°04' W 061°04'715.0
2018-Jan-18 10:29N 14°09' W 061°08'1314.6
2018-Jan-18 09:35N 14°19' W 061°17'1314.5
2018-Jan-18 08:42N 14°30' W 061°24'314.7
2018-Jan-18 08:29N 14°33' W 061°25'814.9
2018-Jan-18 07:59N 14°40' W 061°27'2010.1
2018-Jan-18 06:00N 15°00' W 061°24'10936.5 080 / 251012.0 5.4 -26.0
2018-Jan-18 03:00N 16°48' W 061°42'3524.5 080 / 301012.010.8 26.4 -27.4
2018-Jan-18 01:33N 16°15' W 061°54'115.6
2018-Jan-18 01:30N 16°15' W 061°55'815.8
2018-Jan-18 01:00N 16°23' W 061°56'1615.5
2018-Jan-18 00:00N 16°39' W 061°57'115.1
2018-Jan-17 23:57N 16°40' W 061°57'57438.3
2018-Jan-17 09:00N 07°06' W 062°00'601120.3 080 / 201012.0 5.4 -28.0
2018-Jan-17 04:00N 17°06' W 062°42'58 2.6 080 / 131014.010.8 26.3 -27.3
2018-Jan-16 06:00N 17°48' W 063°24'26 8.6 080 / 201012.0 5.4 -26.0
2018-Jan-16 03:00N 18°00' W 063°48'89 1.9 080 / 171014.010.8 26.2 -26.9
2018-Jan-14 05:00N 18°24' W 065°18'3919.3 080 / 201012.0 5.4 -28.0
2018-Jan-14 03:00N 18°06' W 064°42'400 9.3 080 / 251015.010.8 26.2 -26.9
2018-Jan-12 08:00N 12°18' W 061°18'5310.5 080 / 241011.010.8 -27.0
2018-Jan-12 03:00N 12°42' W 060°30'59 2.8 080 / 191013.010.8 26.4 -27.6
2018-Jan-11 06:00N 13°36' W 060°06'3311.2 100 / 251011.0 5.4 -28.0
2018-Jan-11 03:00N 14°00' W 060°30'1620.1 120 / 181014.0 5.4 25.8 -27.4
2018-Jan-11 02:11N 14°07' W 060°45'4 9.1
2018-Jan-11 01:44N 14°10' W 060°48'2 9.0
2018-Jan-11 01:30N 14°11' W 060°50'4 8.6
2018-Jan-11 01:00N 14°14' W 060°53'4 8.7
2018-Jan-11 00:30N 14°17' W 060°57'4 8.9
2018-Jan-11 00:00N 14°20' W 061°00'5 9.2
2018-Jan-10 23:30N 14°23' W 061°04'4 8.8
2018-Jan-10 23:00N 14°26' W 061°07'510.0
2018-Jan-10 22:30N 14°31' W 061°08'5 9.0
2018-Jan-10 21:58N 14°35' W 061°06'2 3.4
2018-Jan-10 21:22N 14°36' W 061°04'0 0.0
2018-Jan-10 20:58N 14°36' W 061°04'0 0.0
2018-Jan-10 12:03N 14°36' W 061°04'0 1.2
2018-Jan-10 12:01N 14°36' W 061°04'2 3.4
2018-Jan-10 11:30N 14°35' W 061°05'610.8
2018-Jan-10 10:57N 14°37' W 061°11'5016.5
2018-Jan-10 07:57N 15°18' W 061°40'2010.1
2018-Jan-10 06:00N 15°36' W 061°48'4327.5 090 / 251012.0 5.4 -27.0
2018-Jan-10 04:25N 16°10' W 062°15'717.5
2018-Jan-10 04:00N 16°16' W 062°20'817.3
2018-Jan-10 03:31N 16°23' W 062°24'1325.4
2018-Jan-10 03:00N 16°18' W 062°12'21316.7 090 / 221011.0 5.4 26.0 -27.5
2018-Jan-10 02:56N 16°33' W 062°28'716.9
2018-Jan-10 02:31N 16°39' W 062°31'4117.1
2018-Jan-10 00:07N 17°14' W 062°54'717.7
2018-Jan-09 23:43N 17°20' W 062°58'717.2
2018-Jan-09 23:19N 17°26' W 063°01'1416.8
2018-Jan-09 22:30N 17°39' W 063°04'1017.5
2018-Jan-09 21:56N 17°49' W 063°05'817.4
2018-Jan-09 21:30N 17°57' W 063°05'5 8.4
2018-Jan-09 20:57N 18°01' W 063°03'0 0.0
2018-Jan-09 19:57N 18°01' W 063°03'0 0.0
2018-Jan-09 19:24N 18°01' W 063°03'0 0.0
2018-Jan-09 18:57N 18°01' W 063°03'0 0.0
2018-Jan-09 18:12N 18°01' W 063°03'0 0.0
2018-Jan-09 17:57N 18°01' W 063°03'0 0.0
2018-Jan-09 17:27N 18°01' W 063°03'0 0.0
2018-Jan-09 16:57N 18°01' W 063°03'0 0.0
2018-Jan-09 15:54N 18°01' W 063°03'0 0.0
2018-Jan-09 15:30N 18°01' W 063°03'0 0.0
2018-Jan-09 15:00N 18°01' W 063°03'0 0.0
2018-Jan-09 14:30N 18°01' W 063°03'0 0.0
2018-Jan-09 13:33N 18°01' W 063°03'0 0.0
2018-Jan-09 13:15N 18°01' W 063°03'0 0.0
2018-Jan-09 13:00N 18°01' W 063°03'0 0.0
2018-Jan-09 12:30N 18°01' W 063°03'0 0.0
2018-Jan-09 12:00N 18°01' W 063°03'1 1.6
2018-Jan-09 11:29N 18°00' W 063°04'5 8.6
2018-Jan-09 10:57N 17°60' W 063°08'4 8.8
2018-Jan-09 10:30N 17°59' W 063°12'5 8.8
2018-Jan-09 09:59N 17°59' W 063°17'4 8.7
2018-Jan-09 09:28N 17°59' W 063°22'4 8.2
2018-Jan-09 08:56N 17°58' W 063°27'4 8.8
2018-Jan-09 08:30N 17°58' W 063°31'4 8.7
2018-Jan-09 08:00N 17°58' W 063°35'4 8.5
2018-Jan-09 07:30N 17°58' W 063°40'4 2.8
2018-Jan-09 06:00N 17°54' W 063°42'23 7.6 100 / 281011.0 5.4 -27.0
2018-Jan-09 03:00N 17°54' W 064°06'   080 / 301013.0 5.4 25.5 -27.3
Track history (hours):
 
Tides and Currents Weather Stations Pressure Air Temp Water Temp Dewpoint Dewpoint Depression Visibility Wind Speed Wind Dir Waves Ship Positions

Jewel Of The Seas

Operator: Royal Caribbean Cruises Ltd

Last reported at 2018-Jan-18 10:56 UTC. Time now 2018-Jan-18 17:37 UTC.
Position N 14°04' W 061°04'.

Length 290 m; draft 8.6 m.

Type: Passenger vessel. MMSI: 311583000.

Date/timePositionNaut miles runAvg speedWind from/ knotsBaromVisibWave heightAir tempDewpointWater temp
2018-Jan-18 10:56N 14°04' W 061°04'715.0
2018-Jan-18 10:29N 14°09' W 061°08'1314.6
2018-Jan-18 09:35N 14°19' W 061°17'1314.5
2018-Jan-18 08:42N 14°30' W 061°24'314.7
2018-Jan-18 08:29N 14°33' W 061°25'814.9
2018-Jan-18 07:59N 14°40' W 061°27'2010.1
2018-Jan-18 06:00N 15°00' W 061°24'10936.5 080 / 251012.0 5.4 -26.0
2018-Jan-18 03:00N 16°48' W 061°42'3524.5 080 / 301012.010.8 26.4 -27.4
2018-Jan-18 01:33N 16°15' W 061°54'115.6
2018-Jan-18 01:30N 16°15' W 061°55'815.8
2018-Jan-18 01:00N 16°23' W 061°56'1615.5
2018-Jan-18 00:00N 16°39' W 061°57'115.1
2018-Jan-17 23:57N 16°40' W 061°57'57438.3
2018-Jan-17 09:00N 07°06' W 062°00'601120.3 080 / 201012.0 5.4 -28.0
2018-Jan-17 04:00N 17°06' W 062°42'58 2.6 080 / 131014.010.8 26.3 -27.3
2018-Jan-16 06:00N 17°48' W 063°24'26 8.6 080 / 201012.0 5.4 -26.0
2018-Jan-16 03:00N 18°00' W 063°48'89 1.9 080 / 171014.010.8 26.2 -26.9
2018-Jan-14 05:00N 18°24' W 065°18'3919.3 080 / 201012.0 5.4 -28.0
2018-Jan-14 03:00N 18°06' W 064°42'400 9.3 080 / 251015.010.8 26.2 -26.9
2018-Jan-12 08:00N 12°18' W 061°18'5310.5 080 / 241011.010.8 -27.0
2018-Jan-12 03:00N 12°42' W 060°30'59 2.8 080 / 191013.010.8 26.4 -27.6
2018-Jan-11 06:00N 13°36' W 060°06'3311.2 100 / 251011.0 5.4 -28.0
2018-Jan-11 03:00N 14°00' W 060°30'1620.1 120 / 181014.0 5.4 25.8 -27.4
2018-Jan-11 02:11N 14°07' W 060°45'4 9.1
2018-Jan-11 01:44N 14°10' W 060°48'2 9.0
2018-Jan-11 01:30N 14°11' W 060°50'4 8.6
2018-Jan-11 01:00N 14°14' W 060°53'4 8.7
2018-Jan-11 00:30N 14°17' W 060°57'4 8.9
2018-Jan-11 00:00N 14°20' W 061°00'5 9.2
2018-Jan-10 23:30N 14°23' W 061°04'4 8.8
2018-Jan-10 23:00N 14°26' W 061°07'510.0
2018-Jan-10 22:30N 14°31' W 061°08'5 9.0
2018-Jan-10 21:58N 14°35' W 061°06'2 3.4
2018-Jan-10 21:22N 14°36' W 061°04'0 0.0
2018-Jan-10 20:58N 14°36' W 061°04'0 0.0
2018-Jan-10 12:03N 14°36' W 061°04'0 1.2
2018-Jan-10 12:01N 14°36' W 061°04'2 3.4
2018-Jan-10 11:30N 14°35' W 061°05'610.8
2018-Jan-10 10:57N 14°37' W 061°11'5016.5
2018-Jan-10 07:57N 15°18' W 061°40'2010.1
2018-Jan-10 06:00N 15°36' W 061°48'4327.5 090 / 251012.0 5.4 -27.0
2018-Jan-10 04:25N 16°10' W 062°15'717.5
2018-Jan-10 04:00N 16°16' W 062°20'817.3
2018-Jan-10 03:31N 16°23' W 062°24'1325.4
2018-Jan-10 03:00N 16°18' W 062°12'21316.7 090 / 221011.0 5.4 26.0 -27.5
2018-Jan-10 02:56N 16°33' W 062°28'716.9
2018-Jan-10 02:31N 16°39' W 062°31'4117.1
2018-Jan-10 00:07N 17°14' W 062°54'717.7
2018-Jan-09 23:43N 17°20' W 062°58'717.2
2018-Jan-09 23:19N 17°26' W 063°01'1416.8
2018-Jan-09 22:30N 17°39' W 063°04'1017.5
2018-Jan-09 21:56N 17°49' W 063°05'817.4
2018-Jan-09 21:30N 17°57' W 063°05'5 8.4
2018-Jan-09 20:57N 18°01' W 063°03'0 0.0
2018-Jan-09 19:57N 18°01' W 063°03'0 0.0
2018-Jan-09 19:24N 18°01' W 063°03'0 0.0
2018-Jan-09 18:57N 18°01' W 063°03'0 0.0
2018-Jan-09 18:12N 18°01' W 063°03'0 0.0
2018-Jan-09 17:57N 18°01' W 063°03'0 0.0
2018-Jan-09 17:27N 18°01' W 063°03'0 0.0
2018-Jan-09 16:57N 18°01' W 063°03'0 0.0
2018-Jan-09 15:54N 18°01' W 063°03'0 0.0
2018-Jan-09 15:30N 18°01' W 063°03'0 0.0
2018-Jan-09 15:00N 18°01' W 063°03'0 0.0
2018-Jan-09 14:30N 18°01' W 063°03'0 0.0
2018-Jan-09 13:33N 18°01' W 063°03'0 0.0
2018-Jan-09 13:15N 18°01' W 063°03'0 0.0
2018-Jan-09 13:00N 18°01' W 063°03'0 0.0
2018-Jan-09 12:30N 18°01' W 063°03'0 0.0
2018-Jan-09 12:00N 18°01' W 063°03'1 1.6
2018-Jan-09 11:29N 18°00' W 063°04'5 8.6
2018-Jan-09 10:57N 17°60' W 063°08'4 8.8
2018-Jan-09 10:30N 17°59' W 063°12'5 8.8
2018-Jan-09 09:59N 17°59' W 063°17'4 8.7
2018-Jan-09 09:28N 17°59' W 063°22'4 8.2
2018-Jan-09 08:56N 17°58' W 063°27'4 8.8
2018-Jan-09 08:30N 17°58' W 063°31'4 8.7
2018-Jan-09 08:00N 17°58' W 063°35'4 8.5
2018-Jan-09 07:30N 17°58' W 063°40'4 2.8
2018-Jan-09 06:00N 17°54' W 063°42'23 7.6 100 / 281011.0 5.4 -27.0
2018-Jan-09 03:00N 17°54' W 064°06'   080 / 301013.0 5.4 25.5 -27.3

Dump ship's entire track history